sensor_id;sensor_type;location;lat;lon;timestamp;pressure;altitude;pressure_sealevel;temperature;humidity
71424;BME280;59240;51.370;-0.486;2023-05-20T00:00:18;102633.56;;;12.40;58.13
71424;BME280;59240;51.370;-0.486;2023-05-20T00:02:44;102648.41;;;12.44;58.40
71424;BME280;59240;51.370;-0.486;2023-05-20T00:05:11;102628.34;;;12.28;58.76
71424;BME280;59240;51.370;-0.486;2023-05-20T00:07:37;102630.97;;;12.29;58.22
71424;BME280;59240;51.370;-0.486;2023-05-20T00:10:05;102648.38;;;12.33;58.49
71424;BME280;59240;51.370;-0.486;2023-05-20T00:12:32;102631.81;;;12.27;58.54
71424;BME280;59240;51.370;-0.486;2023-05-20T00:15:00;102657.97;;;12.33;59.10
71424;BME280;59240;51.370;-0.486;2023-05-20T00:17:27;102644.88;;;12.27;58.78
71424;BME280;59240;51.370;-0.486;2023-05-20T00:19:54;102621.38;;;12.12;59.13
71424;BME280;59240;51.370;-0.486;2023-05-20T00:22:20;102652.72;;;12.27;59.15
71424;BME280;59240;51.370;-0.486;2023-05-20T00:24:47;102628.34;;;12.16;59.18
71424;BME280;59240;51.370;-0.486;2023-05-20T00:27:14;102649.25;;;12.25;59.02
71424;BME280;59240;51.370;-0.486;2023-05-20T00:29:40;102629.22;;;12.19;59.24
71424;BME280;59240;51.370;-0.486;2023-05-20T00:32:07;102638.78;;;12.19;60.56
71424;BME280;59240;51.370;-0.486;2023-05-20T00:34:34;102643.16;;;12.18;59.82
71424;BME280;59240;51.370;-0.486;2023-05-20T00:37:01;102624.84;;;12.08;60.61
71424;BME280;59240;51.370;-0.486;2023-05-20T00:39:27;102649.25;;;12.19;60.01
71424;BME280;59240;51.370;-0.486;2023-05-20T00:41:55;102636.19;;;12.10;60.40
71424;BME280;59240;51.370;-0.486;2023-05-20T00:44:25;102647.50;;;12.18;60.29
71424;BME280;59240;51.370;-0.486;2023-05-20T00:46:52;102613.50;;;11.98;60.02
71424;BME280;59240;51.370;-0.486;2023-05-20T00:49:19;102614.38;;;11.98;60.07
71424;BME280;59240;51.370;-0.486;2023-05-20T00:51:47;102622.22;;;12.06;59.94
71424;BME280;59240;51.370;-0.486;2023-05-20T00:54:14;102626.59;;;12.02;60.58
71424;BME280;59240;51.370;-0.486;2023-05-20T00:56:40;102625.72;;;12.03;60.02
71424;BME280;59240;51.370;-0.486;2023-05-20T00:59:07;102634.41;;;12.07;60.79
71424;BME280;59240;51.370;-0.486;2023-05-20T01:01:34;102637.91;;;12.08;60.60
71424;BME280;59240;51.370;-0.486;2023-05-20T01:04:01;102625.69;;;11.99;59.99
71424;BME280;59240;51.370;-0.486;2023-05-20T01:06:28;102623.94;;;11.93;61.31
71424;BME280;59240;51.370;-0.486;2023-05-20T01:08:54;102640.50;;;12.04;60.47
71424;BME280;59240;51.370;-0.486;2023-05-20T01:11:33;102623.94;;;11.93;61.57
71424;BME280;59240;51.370;-0.486;2023-05-20T01:14:03;102639.63;;;11.98;61.11
71424;BME280;59240;51.370;-0.486;2023-05-20T01:16:32;102633.53;;;11.91;61.06
71424;BME280;59240;51.370;-0.486;2023-05-20T01:19:01;102621.31;;;11.81;61.74
71424;BME280;59240;51.370;-0.486;2023-05-20T01:21:29;102604.72;;;11.77;61.45
71424;BME280;59240;51.370;-0.486;2023-05-20T01:23:57;102613.44;;;11.78;60.88
71424;BME280;59240;51.370;-0.486;2023-05-20T01:26:24;102617.78;;;11.76;61.34
71424;BME280;59240;51.370;-0.486;2023-05-20T01:28:52;102609.09;;;11.74;60.93
71424;BME280;59240;51.370;-0.486;2023-05-20T01:31:25;102621.28;;;11.76;62.54
71424;BME280;59240;51.370;-0.486;2023-05-20T01:33:57;102596.88;;;11.64;61.95
71424;BME280;59240;51.370;-0.486;2023-05-20T01:36:25;102613.41;;;11.70;61.72
71424;BME280;59240;51.370;-0.486;2023-05-20T01:38:53;102618.66;;;11.67;61.22
71424;BME280;59240;51.370;-0.486;2023-05-20T01:41:22;102609.03;;;11.65;61.71
71424;BME280;59240;51.370;-0.486;2023-05-20T01:43:49;102608.19;;;11.63;62.15
71424;BME280;59240;51.370;-0.486;2023-05-20T01:46:16;102600.31;;;11.58;62.42
71424;BME280;59240;51.370;-0.486;2023-05-20T01:48:43;102598.56;;;11.49;62.17
71424;BME280;59240;51.370;-0.486;2023-05-20T01:51:09;102602.03;;;11.51;61.62
71424;BME280;59240;51.370;-0.486;2023-05-20T01:53:36;102593.31;;;11.40;62.13
71424;BME280;59240;51.370;-0.486;2023-05-20T01:56:04;102604.66;;;11.47;63.53
71424;BME280;59240;51.370;-0.486;2023-05-20T01:58:31;102605.50;;;11.44;63.09
71424;BME280;59240;51.370;-0.486;2023-05-20T02:00:57;102602.00;;;11.38;63.10
71424;BME280;59240;51.370;-0.486;2023-05-20T02:03:24;102585.44;;;11.28;65.57
71424;BME280;59240;51.370;-0.486;2023-05-20T02:05:51;102593.28;;;11.27;63.67
71424;BME280;59240;51.370;-0.486;2023-05-20T02:08:17;102596.72;;;11.21;64.55
71424;BME280;59240;51.370;-0.486;2023-05-20T02:10:47;102588.00;;;11.16;65.22
71424;BME280;59240;51.370;-0.486;2023-05-20T02:13:13;102576.63;;;11.05;63.54
71424;BME280;59240;51.370;-0.486;2023-05-20T02:15:41;102591.47;;;11.15;64.41
71424;BME280;59240;51.370;-0.486;2023-05-20T02:18:07;102594.06;;;11.10;64.65
71424;BME280;59240;51.370;-0.486;2023-05-20T02:20:35;102590.56;;;11.10;63.62
71424;BME280;59240;51.370;-0.486;2023-05-20T02:23:01;102579.19;;;10.95;64.70
71424;BME280;59240;51.370;-0.486;2023-05-20T02:25:31;102587.94;;;11.01;65.56
71424;BME280;59240;51.370;-0.486;2023-05-20T02:27:58;102591.41;;;11.00;64.33
71424;BME280;59240;51.370;-0.486;2023-05-20T02:30:26;102580.91;;;10.84;67.68
71424;BME280;59240;51.370;-0.486;2023-05-20T02:32:52;102589.59;;;10.89;65.15
71424;BME280;59240;51.370;-0.486;2023-05-20T02:35:19;102586.06;;;10.81;66.13
71424;BME280;59240;51.370;-0.486;2023-05-20T02:37:45;102598.25;;;10.81;64.01
71424;BME280;59240;51.370;-0.486;2023-05-20T02:40:13;102599.97;;;10.83;65.93
71424;BME280;59240;51.370;-0.486;2023-05-20T02:42:40;102593.03;;;10.79;66.23
71424;BME280;59240;51.370;-0.486;2023-05-20T02:45:07;102603.41;;;10.75;66.47
71424;BME280;59240;51.370;-0.486;2023-05-20T02:47:33;102585.13;;;10.67;64.46
71424;BME280;59240;51.370;-0.486;2023-05-20T02:50:00;102592.06;;;10.69;65.62
71424;BME280;59240;51.370;-0.486;2023-05-20T02:52:26;102578.13;;;10.61;66.11
71424;BME280;59240;51.370;-0.486;2023-05-20T02:54:53;102587.69;;;10.61;67.31
71424;BME280;59240;51.370;-0.486;2023-05-20T02:57:20;102596.38;;;10.57;65.63
71424;BME280;59240;51.370;-0.486;2023-05-20T02:59:47;102599.81;;;10.56;68.45
71424;BME280;59240;51.370;-0.486;2023-05-20T03:02:13;102605.00;;;10.53;65.86
71424;BME280;59240;51.370;-0.486;2023-05-20T03:04:40;102604.09;;;10.49;66.77
71424;BME280;59240;51.370;-0.486;2023-05-20T03:07:08;102592.78;;;10.46;67.13
71424;BME280;59240;51.370;-0.486;2023-05-20T03:09:34;102577.94;;;10.35;68.47
71424;BME280;59240;51.370;-0.486;2023-05-20T03:12:02;102598.00;;;10.46;66.40
71424;BME280;59240;51.370;-0.486;2023-05-20T03:14:29;102597.97;;;10.39;68.07
71424;BME280;59240;51.370;-0.486;2023-05-20T03:16:55;102606.63;;;10.38;68.21
71424;BME280;59240;51.370;-0.486;2023-05-20T03:19:22;102581.34;;;10.27;67.54
71424;BME280;59240;51.370;-0.486;2023-05-20T03:21:49;102597.91;;;10.33;66.47
71424;BME280;59240;51.370;-0.486;2023-05-20T03:24:16;102596.16;;;10.34;67.14
71424;BME280;59240;51.370;-0.486;2023-05-20T03:26:43;102581.34;;;10.27;66.05
71424;BME280;59240;51.370;-0.486;2023-05-20T03:29:11;102582.22;;;10.24;67.66
71424;BME280;59240;51.370;-0.486;2023-05-20T03:31:38;102590.91;;;10.26;67.64
71424;BME280;59240;51.370;-0.486;2023-05-20T03:34:05;102583.88;;;10.21;71.03
71424;BME280;59240;51.370;-0.486;2023-05-20T03:36:31;102579.53;;;10.20;67.33
71424;BME280;59240;51.370;-0.486;2023-05-20T03:38:58;102580.34;;;10.15;68.10
71424;BME280;59240;51.370;-0.486;2023-05-20T03:41:24;102579.47;;;10.15;67.56
71424;BME280;59240;51.370;-0.486;2023-05-20T03:43:51;102571.63;;;10.09;68.84
71424;BME280;59240;51.370;-0.486;2023-05-20T03:46:18;102576.84;;;10.09;68.62
71424;BME280;59240;51.370;-0.486;2023-05-20T03:48:44;102578.53;;;10.05;68.16
71424;BME280;59240;51.370;-0.486;2023-05-20T03:51:11;102576.72;;;9.98;74.18
71424;BME280;59240;51.370;-0.486;2023-05-20T03:53:37;102561.03;;;9.91;68.28
71424;BME280;59240;51.370;-0.486;2023-05-20T03:56:04;102570.59;;;9.90;68.88
71424;BME280;59240;51.370;-0.486;2023-05-20T03:58:31;102573.19;;;9.89;67.78
71424;BME280;59240;51.370;-0.486;2023-05-20T04:00:57;102574.94;;;9.93;70.66
71424;BME280;59240;51.370;-0.486;2023-05-20T04:03:24;102571.41;;;9.87;68.85
71424;BME280;59240;51.370;-0.486;2023-05-20T04:05:51;102574.94;;;9.90;68.46
71424;BME280;59240;51.370;-0.486;2023-05-20T04:08:18;102560.97;;;9.84;68.80
71424;BME280;59240;51.370;-0.486;2023-05-20T04:10:44;102570.59;;;9.92;67.90
71424;BME280;59240;51.370;-0.486;2023-05-20T04:13:11;102567.13;;;9.90;72.22
71424;BME280;59240;51.370;-0.486;2023-05-20T04:15:38;102572.31;;;9.90;70.41
71424;BME280;59240;51.370;-0.486;2023-05-20T04:18:04;102571.41;;;9.87;69.90
71424;BME280;59240;51.370;-0.486;2023-05-20T04:20:31;102567.06;;;9.88;69.77
71424;BME280;59240;51.370;-0.486;2023-05-20T04:22:58;102571.38;;;9.83;70.23
71424;BME280;59240;51.370;-0.486;2023-05-20T04:25:25;102574.81;;;9.80;72.84
71424;BME280;59240;51.370;-0.486;2023-05-20T04:27:52;102564.31;;;9.71;70.33
71424;BME280;59240;51.370;-0.486;2023-05-20T04:30:23;102559.13;;;9.74;71.25
71424;BME280;59240;51.370;-0.486;2023-05-20T04:32:49;102582.66;;;9.83;69.96
71424;BME280;59240;51.370;-0.486;2023-05-20T04:35:17;102580.94;;;9.82;76.85
71424;BME280;59240;51.370;-0.486;2023-05-20T04:37:43;102582.63;;;9.80;76.45
71424;BME280;59240;51.370;-0.486;2023-05-20T04:40:14;102584.41;;;9.84;71.59
71424;BME280;59240;51.370;-0.486;2023-05-20T04:42:40;102583.56;;;9.85;76.93
71424;BME280;59240;51.370;-0.486;2023-05-20T04:45:09;102588.81;;;9.92;72.96
71424;BME280;59240;51.370;-0.486;2023-05-20T04:47:36;102587.97;;;9.93;72.66
71424;BME280;59240;51.370;-0.486;2023-05-20T04:50:06;102589.75;;;9.98;71.54
71424;BME280;59240;51.370;-0.486;2023-05-20T04:52:36;102578.47;;;9.99;71.91
71424;BME280;59240;51.370;-0.486;2023-05-20T04:55:08;102592.47;;;10.09;74.28
71424;BME280;59240;51.370;-0.486;2023-05-20T04:57:36;102557.63;;;9.98;73.58
71424;BME280;59240;51.370;-0.486;2023-05-20T05:00:05;102575.94;;;10.08;72.79
71424;BME280;59240;51.370;-0.486;2023-05-20T05:02:34;102579.53;;;10.18;74.32
71424;BME280;59240;51.370;-0.486;2023-05-20T05:05:01;102571.72;;;10.21;73.50
71424;BME280;59240;51.370;-0.486;2023-05-20T05:07:28;102584.00;;;10.31;71.69
71424;BME280;59240;51.370;-0.486;2023-05-20T05:09:54;102585.75;;;10.34;74.14
71424;BME280;59240;51.370;-0.486;2023-05-20T05:12:21;102589.28;;;10.40;72.06
71424;BME280;59240;51.370;-0.486;2023-05-20T05:14:48;102589.31;;;10.47;71.32
71424;BME280;59240;51.370;-0.486;2023-05-20T05:17:15;102571.03;;;10.42;71.52
71424;BME280;59240;51.370;-0.486;2023-05-20T05:19:41;102580.69;;;10.51;72.93
71424;BME280;59240;51.370;-0.486;2023-05-20T05:22:08;102566.75;;;10.49;73.60
71424;BME280;59240;51.370;-0.486;2023-05-20T05:24:34;102577.22;;;10.55;72.26
71424;BME280;59240;51.370;-0.486;2023-05-20T05:27:01;102572.88;;;10.52;75.43
71424;BME280;59240;51.370;-0.486;2023-05-20T05:29:27;102572.91;;;10.58;72.88
71424;BME280;59240;51.370;-0.486;2023-05-20T05:31:54;102580.78;;;10.66;72.20
71424;BME280;59240;51.370;-0.486;2023-05-20T05:34:21;102574.66;;;10.61;73.22
71424;BME280;59240;51.370;-0.486;2023-05-20T05:36:48;102587.78;;;10.76;71.64
71424;BME280;59240;51.370;-0.486;2023-05-20T05:39:14;102547.72;;;10.59;74.17
71424;BME280;59240;51.370;-0.486;2023-05-20T05:41:41;102573.00;;;10.75;71.29
71424;BME280;59240;51.370;-0.486;2023-05-20T05:44:08;102593.06;;;10.85;74.64
71424;BME280;59240;51.370;-0.486;2023-05-20T05:46:34;102587.88;;;10.91;73.27
71424;BME280;59240;51.370;-0.486;2023-05-20T05:49:01;102574.00;;;10.92;72.53
71424;BME280;59240;51.370;-0.486;2023-05-20T05:51:28;102564.38;;;10.88;75.39
71424;BME280;59240;51.370;-0.486;2023-05-20T05:53:56;102560.94;;;10.92;71.29
71424;BME280;59240;51.370;-0.486;2023-05-20T05:56:22;102565.31;;;11.04;72.24
71424;BME280;59240;51.370;-0.486;2023-05-20T05:58:49;102577.53;;;11.07;71.95
71424;BME280;59240;51.370;-0.486;2023-05-20T06:01:16;102586.25;;;11.18;71.18
71424;BME280;59240;51.370;-0.486;2023-05-20T06:03:43;102566.25;;;11.12;72.78
71424;BME280;59240;51.370;-0.486;2023-05-20T06:06:10;102574.97;;;11.22;70.85
71424;BME280;59240;51.370;-0.486;2023-05-20T06:08:37;102575.88;;;11.30;70.71
71424;BME280;59240;51.370;-0.486;2023-05-20T06:11:03;102570.66;;;11.30;70.88
71424;BME280;59240;51.370;-0.486;2023-05-20T06:13:30;102575.88;;;11.30;72.63
71424;BME280;59240;51.370;-0.486;2023-05-20T06:15:56;102558.50;;;11.35;72.36
71424;BME280;59240;51.370;-0.486;2023-05-20T06:18:23;102581.16;;;11.48;70.64
71424;BME280;59240;51.370;-0.486;2023-05-20T06:20:56;102558.50;;;11.38;72.63
71424;BME280;59240;51.370;-0.486;2023-05-20T06:23:23;102576.84;;;11.57;72.47
71424;BME280;59240;51.370;-0.486;2023-05-20T06:25:50;102570.78;;;11.61;74.67
71424;BME280;59240;51.370;-0.486;2023-05-20T06:28:17;102569.88;;;11.65;72.11
71424;BME280;59240;51.370;-0.486;2023-05-20T06:30:44;102563.81;;;11.69;71.22
71424;BME280;59240;51.370;-0.486;2023-05-20T06:33:10;102556.84;;;11.71;71.83
71424;BME280;59240;51.370;-0.486;2023-05-20T06:35:37;102570.84;;;11.82;73.08
71424;BME280;59240;51.370;-0.486;2023-05-20T06:38:04;102558.66;;;11.84;71.00
71424;BME280;59240;51.370;-0.486;2023-05-20T06:40:31;102532.50;;;11.75;71.92
71424;BME280;59240;51.370;-0.486;2023-05-20T06:42:57;102538.56;;;11.80;71.91
71424;BME280;59240;51.370;-0.486;2023-05-20T06:45:24;102546.47;;;11.89;71.96
71424;BME280;59240;51.370;-0.486;2023-05-20T06:47:51;102535.16;;;11.83;71.28
71424;BME280;59240;51.370;-0.486;2023-05-20T06:50:19;102568.25;;;12.08;72.21
71424;BME280;59240;51.370;-0.486;2023-05-20T06:52:46;102557.78;;;12.13;71.85
71424;BME280;59240;51.370;-0.486;2023-05-20T06:55:13;102539.50;;;12.13;71.01
71424;BME280;59240;51.370;-0.486;2023-05-20T06:57:39;102558.69;;;12.28;70.88
71424;BME280;59240;51.370;-0.486;2023-05-20T07:00:06;102542.09;;;12.26;72.17
71424;BME280;59240;51.370;-0.486;2023-05-20T07:02:34;102548.22;;;12.28;73.05
71424;BME280;59240;51.370;-0.486;2023-05-20T07:05:01;102548.19;;;12.33;71.29
71424;BME280;59240;51.370;-0.486;2023-05-20T07:07:28;102548.22;;;12.36;71.46
71424;BME280;59240;51.370;-0.486;2023-05-20T07:09:56;102544.69;;;12.46;70.59
71424;BME280;59240;51.370;-0.486;2023-05-20T07:12:23;102536.88;;;12.45;70.52
71424;BME280;59240;51.370;-0.486;2023-05-20T07:14:49;102552.53;;;12.57;70.36
71424;BME280;59240;51.370;-0.486;2023-05-20T07:17:16;102542.97;;;12.56;71.35
71424;BME280;59240;51.370;-0.486;2023-05-20T07:19:43;102546.44;;;12.56;71.36
71424;BME280;59240;51.370;-0.486;2023-05-20T07:22:09;102552.50;;;12.66;71.37
71424;BME280;59240;51.370;-0.486;2023-05-20T07:24:36;102552.47;;;12.74;69.69
71424;BME280;59240;51.370;-0.486;2023-05-20T07:27:03;102533.31;;;12.72;70.49
71424;BME280;59240;51.370;-0.486;2023-05-20T07:29:30;102549.84;;;12.86;69.48
71424;BME280;59240;51.370;-0.486;2023-05-20T07:31:56;102547.19;;;12.89;69.85
71424;BME280;59240;51.370;-0.486;2023-05-20T07:34:23;102515.84;;;12.81;69.73
71424;BME280;59240;51.370;-0.486;2023-05-20T07:36:50;102540.22;;;12.97;70.71
71424;BME280;59240;51.370;-0.486;2023-05-20T07:39:17;102516.66;;;12.94;69.68
71424;BME280;59240;51.370;-0.486;2023-05-20T07:41:43;102537.53;;;13.09;69.76
71424;BME280;59240;51.370;-0.486;2023-05-20T07:44:10;102552.31;;;13.17;69.04
71424;BME280;59240;51.370;-0.486;2023-05-20T07:46:38;102553.22;;;13.19;69.55
71424;BME280;59240;51.370;-0.486;2023-05-20T07:49:06;102535.78;;;13.13;68.71
71424;BME280;59240;51.370;-0.486;2023-05-20T07:51:33;102552.34;;;13.26;68.86
71424;BME280;59240;51.370;-0.486;2023-05-20T07:54:00;102554.88;;;13.38;69.03
71424;BME280;59240;51.370;-0.486;2023-05-20T07:56:27;102537.47;;;13.31;69.22
71424;BME280;59240;51.370;-0.486;2023-05-20T07:58:58;102547.78;;;13.58;68.73
71424;BME280;59240;51.370;-0.486;2023-05-20T08:01:25;102549.38;;;13.81;69.30
71424;BME280;59240;51.370;-0.486;2023-05-20T08:03:52;102523.19;;;13.79;67.59
71424;BME280;59240;51.370;-0.486;2023-05-20T08:06:20;102519.59;;;13.94;67.53
71424;BME280;59240;51.370;-0.486;2023-05-20T08:08:47;102521.16;;;14.13;67.38
71424;BME280;59240;51.370;-0.486;2023-05-20T08:11:13;102505.31;;;14.26;67.23
71424;BME280;59240;51.370;-0.486;2023-05-20T08:13:40;102520.00;;;14.48;65.87
71424;BME280;59240;51.370;-0.486;2023-05-20T08:16:10;102493.59;;;14.65;66.17
71424;BME280;59240;51.370;-0.486;2023-05-20T08:18:36;102513.38;;;14.92;66.45
71424;BME280;59240;51.370;-0.486;2023-05-20T08:21:05;102492.28;;;14.99;66.16
71424;BME280;59240;51.370;-0.486;2023-05-20T08:23:37;102497.22;;;15.22;64.56
71424;BME280;59240;51.370;-0.486;2023-05-20T08:26:06;102490.88;;;15.39;65.21
71424;BME280;59240;51.370;-0.486;2023-05-20T08:28:33;102496.66;;;15.62;63.53
71424;BME280;59240;51.370;-0.486;2023-05-20T08:31:00;102503.22;;;15.89;62.19
71424;BME280;59240;51.370;-0.486;2023-05-20T08:33:27;102490.84;;;15.96;63.98
71424;BME280;59240;51.370;-0.486;2023-05-20T08:35:54;102496.66;;;16.14;62.67
71424;BME280;59240;51.370;-0.486;2023-05-20T08:38:21;102507.66;;;16.36;63.31
71424;BME280;59240;51.370;-0.486;2023-05-20T08:40:53;102487.13;;;16.55;62.70
71424;BME280;59240;51.370;-0.486;2023-05-20T08:43:20;102495.59;;;16.73;62.38
71424;BME280;59240;51.370;-0.486;2023-05-20T08:45:47;102501.22;;;16.98;62.79
71424;BME280;59240;51.370;-0.486;2023-05-20T08:48:18;102478.16;;;17.09;61.70
71424;BME280;59240;51.370;-0.486;2023-05-20T08:50:49;102508.94;;;17.45;61.18
71424;BME280;59240;51.370;-0.486;2023-05-20T08:53:21;102508.34;;;17.70;60.60
71424;BME280;59240;51.370;-0.486;2023-05-20T08:55:53;102506.09;;;17.90;57.78
71424;BME280;59240;51.370;-0.486;2023-05-20T08:58:21;102509.09;;;18.11;59.07
71424;BME280;59240;51.370;-0.486;2023-05-20T09:00:49;102493.28;;;18.11;57.50
71424;BME280;59240;51.370;-0.486;2023-05-20T09:03:16;102489.72;;;18.12;58.73
71424;BME280;59240;51.370;-0.486;2023-05-20T09:05:44;102483.22;;;18.25;60.22
71424;BME280;59240;51.370;-0.486;2023-05-20T09:08:11;102498.13;;;18.60;59.55
71424;BME280;59240;51.370;-0.486;2023-05-20T09:10:39;102494.72;;;18.86;58.90
71424;BME280;59240;51.370;-0.486;2023-05-20T09:13:09;102473.97;;;19.03;58.42
71424;BME280;59240;51.370;-0.486;2023-05-20T09:15:37;102489.78;;;19.33;56.55
71424;BME280;59240;51.370;-0.486;2023-05-20T09:18:05;102464.59;;;19.23;56.45
71424;BME280;59240;51.370;-0.486;2023-05-20T09:20:34;102488.84;;;19.35;57.18
71424;BME280;59240;51.370;-0.486;2023-05-20T09:23:04;102483.06;;;19.79;56.03
71424;BME280;59240;51.370;-0.486;2023-05-20T09:25:32;102450.28;;;19.83;55.62
71424;BME280;59240;51.370;-0.486;2023-05-20T09:27:59;102467.97;;;20.07;55.51
71424;BME280;59240;51.370;-0.486;2023-05-20T09:30:25;102463.75;;;20.27;55.02
71424;BME280;59240;51.370;-0.486;2023-05-20T09:32:57;102465.50;;;20.53;52.89
71424;BME280;59240;51.370;-0.486;2023-05-20T09:35:26;102459.22;;;20.55;53.42
71424;BME280;59240;51.370;-0.486;2023-05-20T09:37:57;102438.59;;;20.63;50.98
71424;BME280;59240;51.370;-0.486;2023-05-20T09:40:27;102452.19;;;20.77;48.28
71424;BME280;59240;51.370;-0.486;2023-05-20T09:43:04;102449.44;;;20.81;47.58
71424;BME280;59240;51.370;-0.486;2023-05-20T09:45:33;102436.53;;;20.95;52.97
71424;BME280;59240;51.370;-0.486;2023-05-20T09:48:01;102461.59;;;21.32;53.33
71424;BME280;59240;51.370;-0.486;2023-05-20T09:50:29;102418.66;;;21.44;52.48
71424;BME280;59240;51.370;-0.486;2023-05-20T09:53:01;102433.16;;;21.77;50.35
71424;BME280;59240;51.370;-0.486;2023-05-20T09:55:29;102427.44;;;21.87;45.88
71424;BME280;59240;51.370;-0.486;2023-05-20T09:57:57;102444.84;;;21.94;49.38
71424;BME280;59240;51.370;-0.486;2023-05-20T10:00:24;102426.50;;;22.08;50.88
71424;BME280;59240;51.370;-0.486;2023-05-20T10:02:51;102421.28;;;22.27;48.60
71424;BME280;59240;51.370;-0.486;2023-05-20T10:05:26;102436.13;;;22.51;48.31
71424;BME280;59240;51.370;-0.486;2023-05-20T10:10:52;102410.63;;;23.04;46.35
71424;BME280;59240;51.370;-0.486;2023-05-20T10:17:30;102426.47;;;23.24;43.03
71424;BME280;59240;51.370;-0.486;2023-05-20T10:19:35;102412.22;;;23.25;43.06
71424;BME280;59240;51.370;-0.486;2023-05-20T10:22:06;102414.19;;;23.39;41.11
71424;BME280;59240;51.370;-0.486;2023-05-20T10:24:36;102408.50;;;23.29;44.61
71424;BME280;59240;51.370;-0.486;2023-05-20T10:27:11;102404.19;;;23.27;43.66
71424;BME280;59240;51.370;-0.486;2023-05-20T10:29:51;102412.34;;;23.41;43.78
71424;BME280;59240;51.370;-0.486;2023-05-20T10:34:50;102394.00;;;23.71;44.43
71424;BME280;59240;51.370;-0.486;2023-05-20T10:37:26;102385.59;;;23.79;38.97
71424;BME280;59240;51.370;-0.486;2023-05-20T10:40:10;102401.19;;;23.69;42.14
71424;BME280;59240;51.370;-0.486;2023-05-20T10:42:38;102396.13;;;23.28;44.04
71424;BME280;59240;51.370;-0.486;2023-05-20T10:45:08;102391.22;;;23.20;41.25
71424;BME280;59240;51.370;-0.486;2023-05-20T10:47:35;102374.69;;;23.31;43.28
71424;BME280;59240;51.370;-0.486;2023-05-20T10:50:06;102379.38;;;23.62;43.00
71424;BME280;59240;51.370;-0.486;2023-05-20T10:52:35;102371.75;;;23.89;41.84
71424;BME280;59240;51.370;-0.486;2023-05-20T10:55:02;102367.97;;;23.93;41.61
71424;BME280;59240;51.370;-0.486;2023-05-20T10:57:30;102363.25;;;23.98;42.13
71424;BME280;59240;51.370;-0.486;2023-05-20T10:59:59;102356.34;;;24.12;42.39
71424;BME280;59240;51.370;-0.486;2023-05-20T11:02:26;102358.59;;;24.19;42.00
71424;BME280;59240;51.370;-0.486;2023-05-20T11:04:57;102342.59;;;24.04;41.17
71424;BME280;59240;51.370;-0.486;2023-05-20T11:07:29;102350.91;;;23.80;40.89
71424;BME280;59240;51.370;-0.486;2023-05-20T11:09:58;102341.22;;;23.79;41.87
71424;BME280;59240;51.370;-0.486;2023-05-20T11:12:26;102355.16;;;24.17;41.00
71424;BME280;59240;51.370;-0.486;2023-05-20T11:14:55;102354.50;;;24.29;40.90
71424;BME280;59240;51.370;-0.486;2023-05-20T11:17:22;102337.75;;;23.94;40.10
71424;BME280;59240;51.370;-0.486;2023-05-20T11:19:49;102341.31;;;23.43;39.21
71424;BME280;59240;51.370;-0.486;2023-05-20T11:22:15;102352.63;;;23.12;40.99
71424;BME280;59240;51.370;-0.486;2023-05-20T11:24:42;102339.41;;;23.10;41.34
71424;BME280;59240;51.370;-0.486;2023-05-20T11:27:09;102337.78;;;23.25;40.78
71424;BME280;59240;51.370;-0.486;2023-05-20T11:29:36;102344.81;;;23.26;40.58
71424;BME280;59240;51.370;-0.486;2023-05-20T11:32:07;102318.56;;;23.20;40.95
71424;BME280;59240;51.370;-0.486;2023-05-20T11:34:34;102317.28;;;22.92;40.29
71424;BME280;59240;51.370;-0.486;2023-05-20T11:37:06;102328.31;;;23.19;40.55
71424;BME280;59240;51.370;-0.486;2023-05-20T11:39:33;102317.44;;;23.76;40.13
71424;BME280;59240;51.370;-0.486;2023-05-20T11:41:59;102330.13;;;24.37;39.69
71424;BME280;59240;51.370;-0.486;2023-05-20T11:44:26;102294.09;;;24.62;40.05
71424;BME280;59240;51.370;-0.486;2023-05-20T11:47:00;102324.69;;;24.86;38.11
71424;BME280;59240;51.370;-0.486;2023-05-20T11:49:28;102307.41;;;24.62;38.64
71424;BME280;59240;51.370;-0.486;2023-05-20T11:51:57;102320.94;;;24.59;37.59
71424;BME280;59240;51.370;-0.486;2023-05-20T11:54:24;102295.66;;;24.66;38.84
71424;BME280;59240;51.370;-0.486;2023-05-20T11:56:53;102315.97;;;24.98;38.00
71424;BME280;59240;51.370;-0.486;2023-05-20T11:59:24;102296.38;;;24.99;37.45
71424;BME280;59240;51.370;-0.486;2023-05-20T12:01:54;102305.94;;;25.33;37.04
71424;BME280;59240;51.370;-0.486;2023-05-20T12:04:21;102294.97;;;25.52;37.60
71424;BME280;59240;51.370;-0.486;2023-05-20T12:06:48;102276.81;;;25.73;36.98
71424;BME280;59240;51.370;-0.486;2023-05-20T12:09:15;102301.00;;;25.56;36.94
71424;BME280;59240;51.370;-0.486;2023-05-20T12:11:42;102291.09;;;24.98;36.53
71424;BME280;59240;51.370;-0.486;2023-05-20T12:14:10;102273.50;;;24.95;37.52
71424;BME280;59240;51.370;-0.486;2023-05-20T12:16:37;102297.44;;;25.27;36.54
71424;BME280;59240;51.370;-0.486;2023-05-20T12:19:03;102263.78;;;25.24;35.77
71424;BME280;59240;51.370;-0.486;2023-05-20T12:21:31;102257.53;;;25.40;36.01
71424;BME280;59240;51.370;-0.486;2023-05-20T12:23:58;102278.56;;;25.30;35.90
71424;BME280;59240;51.370;-0.486;2023-05-20T12:26:26;102268.34;;;24.92;36.17
71424;BME280;59240;51.370;-0.486;2023-05-20T12:28:55;102287.50;;;24.53;35.97
71424;BME280;59240;51.370;-0.486;2023-05-20T12:31:23;102264.78;;;24.14;36.62
71424;BME280;59240;51.370;-0.486;2023-05-20T12:33:50;102280.06;;;24.11;35.77
71424;BME280;59240;51.370;-0.486;2023-05-20T12:36:20;102269.13;;;23.84;36.27
71424;BME280;59240;51.370;-0.486;2023-05-20T12:38:47;102245.16;;;23.51;36.41
71424;BME280;59240;51.370;-0.486;2023-05-20T12:41:14;102241.69;;;23.66;36.15
71424;BME280;59240;51.370;-0.486;2023-05-20T12:43:44;102256.16;;;23.78;35.51
71424;BME280;59240;51.370;-0.486;2023-05-20T12:46:10;102258.78;;;23.62;36.39
71424;BME280;59240;51.370;-0.486;2023-05-20T12:48:37;102255.72;;;23.52;36.13
71424;BME280;59240;51.370;-0.486;2023-05-20T12:51:07;102250.66;;;23.30;34.52